Overview Statistics Trail Chart Weather Telemetry Raw packets
 

This is the latest recevied weather packets stored in our database for station/object N0HOT. If no packets are shown the sender has not sent any weather packets the latest 10 day(s).

<< 54 55 56 57 58 59 60 >>
Time Temp. Humidity Pressure Rain* Wind** Luminosity Snow
1788288044 31.67° C 46% 1013.6 hPa 0 mm - 468 W/m² -
1788287744 31.67° C 48% 1013.6 hPa 0 mm - 355 W/m² -
1788287440 31.67° C 47% 1013.6 hPa 0 mm - 432 W/m² -
1788287135 31.67° C 47% 1013.2 hPa 0 mm - 349 W/m² -
1788286830 32.22° C 47% 1013.2 hPa 0 mm - 475 W/m² -
1788286548 32.22° C 47% 1013.6 hPa 0 mm - 335 W/m² -
1788286229 32.22° C 40% 1013.6 hPa 0 mm - 179 W/m² -
1788285927 32.22° C 41% 1013.6 hPa 0 mm - 397 W/m² -
1788285622 32.22° C 46% 1013.6 hPa 0 mm - 500 W/m² -
1788285316 31.67° C 40% 1013.6 hPa 0 mm - 468 W/m² -
1788285011 31.67° C 46% 1013.9 hPa 0 mm - 674 W/m² -
1788284707 31.67° C 46% 1013.6 hPa 0 mm - 527 W/m² -
1788284402 31.67° C 53% 1013.9 hPa 0 mm - 658 W/m² -
1788284097 31.11° C 53% 1013.9 hPa 0 mm - 598 W/m² -
1788283793 31.11° C 51% 1013.9 hPa 0 mm - 600 W/m² -
1788283489 31.11° C 53% 1013.9 hPa 0 mm - 652 W/m² -
1788283186 30.56° C 54% 1013.9 hPa 0 mm - 684 W/m² -
1788282885 30.56° C 55% 1013.9 hPa 0 mm - 684 W/m² -
1788282584 30.56° C 53% 1013.9 hPa 0 mm - 685 W/m² -
1788282279 30° C 56% 1013.9 hPa 0 mm - 696 W/m² -
1788281978 30° C 58% 1013.9 hPa 0 mm - 707 W/m² -
1788281673 30° C 57% 1013.9 hPa 0 mm - 651 W/m² -
1788281369 29.44° C 57% 1013.9 hPa 0 mm - 669 W/m² -
1788281064 29.44° C 59% 1013.9 hPa 0 mm - 648 W/m² -
1788280759 29.44° C 62% 1013.9 hPa 0 mm - 647 W/m² -

* Rain latest hour (hover to see other rain measurements)
** Current wind speed in m/s (hover to see current wind gust speed)